Αναφορές METAR από Ελληνικά Αεροδρόμια

Σε αυτή τη σελίδα, μπορείτε να παρακολουθείτε τις αναφορές METAR που προέρχονται από τα κυριότερα αεροδρόμια της Ελλάδας. Το περιεχόμενο αποκωδικοποιείται, οπτικοποιείται και γίνεται κατανοητό από τον καθένα με τη χρήση του όμορφου δίγλωσσου γραφικού περιβάλλοντος του meteothes.gr!

Η αρχική κωδικοποιημένη αναφορά, συμπεριλαμβάνεται επίσης στο κάτω μέρος. Σε όποια καθεστερεί η ενημέρωση, το προειδοποιητικό μήνυμα "Μη ενημερωμένο METAR!" εμφανίζεται στο πάνω μέρος της με κόκκινα γράμματα.

Εχουν προστεθεί επίσης δύο αεροδρόμια από γειτονικές χώρες, την Οχρίδα(ΠΓΔΜ) και την Σόφια(Βουλγαρία) για να ελέγχουμε την εξέλιξη των ψυχρών εισβολών από τα Βόρεια!

LGTS - Thessaloniki/Makedonia-Elev 7m
Απόσταση από meteothes.gr: Ν 13km
Ενημερώθηκε: 26/08/2019 02:20
Διάσπαρτα Nέφη
Διάσπαρτα Nέφη
 Ανεμος από μεταβλητός
Ανεμος: μεταβλητός 6 km/h
Θερμοκρασία: 22°C
Σημ. Δρόσου: 13°C
Υγρασία: 57%
Βαρόμετρο: 1015 hPa
Νέφωση: Διάσπαρτα Nέφη
Ορατότητα: 10 km
Λεπτομέρειες Νεφών: Διάσπαρτα Nέφη 762 m
2019/08/25 23:20 LGTS 252320Z VRB03KT 9999 FEW025 22/13 Q1015 NOSIG
LGAV - Athens/Elef. Venizelos-Elev 94m
Απόσταση από meteothes.gr: ΝΝΑ 312km
Ενημερώθηκε: 26/08/2019 02:20
Αίθριος
Αίθριος
 Ανεμος από Β
Ανεμος: Β 20 km/h
Θερμοκρασία: 29°C
Σημ. Δρόσου: 11°C
Υγρασία: 33%
Βαρόμετρο: 1012 hPa
Συνθήκες: Αίθριος
Ορατότητα: πάνω από 10 km
2019/08/25 23:20 LGAV 252320Z 01011KT CAVOK 29/11 Q1012 NOSIG
 
LGAL - Alexandroupolis-Elev 3m
Απόσταση από meteothes.gr: Α 251km
Ενημερώθηκε: 25/08/2019 22:20
ΜΗ Ενημερωμένο METAR!
Αίθριος
Αίθριος
 Ανεμος από ΒΑ
Ανεμος: ΒΑ 9 km/h
Θερμοκρασία: 29°C
Δείκτη Δυσφορίας: 29°C
Σημ. Δρόσου: 15°C
Υγρασία: 43%
Βαρόμετρο: 1015 hPa
Συνθήκες: Αίθριος
Ορατότητα: πάνω από 10 km
2019/08/25 19:20 LGAL 251920Z 04005KT CAVOK 29/15 Q1015
LGKV - Kavala/Crysoupolis-Elev 5m
Απόσταση από meteothes.gr: ΑΒΑ 144km
Ενημερώθηκε: 26/08/2019 00:20
ΜΗ Ενημερωμένο METAR!
Αίθριος
Αίθριος
 Ανεμος από ΒΑ
Ανεμος: ΒΑ 9 km/h
Θερμοκρασία: 27°C
Δείκτη Δυσφορίας: 27°C
Σημ. Δρόσου: 15°C
Υγρασία: 48%
Βαρόμετρο: 1015 hPa
Συνθήκες: Αίθριος
Ορατότητα: πάνω από 10 km
2019/08/25 21:20 LGKV 252120Z 05005KT CAVOK 27/15 Q1015
 
LGSK - Skiathos Island-Elev 15m
Απόσταση από meteothes.gr: ΝΝΑ 168km
Ενημερώθηκε: 25/08/2019 21:50
ΜΗ Ενημερωμένο METAR!
Αίθριος
Αίθριος
 Ανεμος από άπνοια
Ανεμος: άπνοια
Θερμοκρασία: 27°C
Δείκτη Δυσφορίας: 29°C
Σημ. Δρόσου: 20°C
Υγρασία: 66%
Βαρόμετρο: 1014 hPa
Συνθήκες: Αίθριος
Ορατότητα: πάνω από 10 km
2019/08/25 18:50 LGSK 251850Z 00000KT CAVOK 27/20 Q1014
LGLM - Limnos Island-Elev 5m
Απόσταση από meteothes.gr: ΑΝΑ 210km
Ενημερώθηκε: 26/08/2019 01:50
Αίθριος
Αίθριος
 Ανεμος από ΒΒΑ
Ανεμος: ΒΒΑ 24 km/h
Θερμοκρασία: 26°C
Σημ. Δρόσου: 21°C
Υγρασία: 74%
Βαρόμετρο: 1013 hPa
Συνθήκες: Αίθριος
Ορατότητα: πάνω από 10 km
2019/08/25 22:50 LGLM 252250Z 02013KT CAVOK 26/21 Q1013
 
LGMT - Mitilini Island-Elev 17m
Απόσταση από meteothes.gr: ΑΝΑ 358km
Ενημερώθηκε: 25/08/2019 23:20
ΜΗ Ενημερωμένο METAR!
Αίθριος
Αίθριος
 Ανεμος από άπνοια
Ανεμος: άπνοια
Θερμοκρασία: 29°C
Δείκτη Δυσφορίας: 29°C
Σημ. Δρόσου: 18°C
Υγρασία: 51%
Βαρόμετρο: 1012 hPa
Συνθήκες: Αίθριος
Ορατότητα: πάνω από 10 km
2019/08/25 20:20 LGMT 252020Z 00000KT CAVOK 29/18 Q1012
LGSY - Skiros Island-Elev 15m
Απόσταση από meteothes.gr: ΝΑ 227km
Ενημερώθηκε: 26/08/2019 02:20

 Ανεμος από ΒΒΔ
Ανεμος: ΒΒΔ 11 km/h
Θερμοκρασία: 26°C
Σημ. Δρόσου: 20°C
Υγρασία: 70%
Βαρόμετρο: 1013 hPa
2019/08/25 23:20 LGSY 252320Z AUTO 34006KT //// // ////// 26/20 Q1013 RE//
 
LGKZ - Kozani-Elev 628m
Απόσταση από meteothes.gr: ΔΝΔ 102km
Ενημερώθηκε: 26/08/2019 02:20

 Ανεμος από Β
Ανεμος: Β 9 km/h
Θερμοκρασία: 20°C
Σημ. Δρόσου: 9°C
Υγρασία: 49%
Βαρόμετρο: 1019 hPa
2019/08/25 23:20 LGKZ 252320Z AUTO 35005KT //// // ////// 20/09 Q1019 RE//
LGIO - Ioannina-Elev 476m
Απόσταση από meteothes.gr: ΔΝΔ 209km
Ενημερώθηκε: 25/08/2019 22:20
ΜΗ Ενημερωμένο METAR!
Διάσπαρτα Nέφη
Διάσπαρτα Nέφη
 Ανεμος από ΔΒΔ
Ανεμος: ΔΒΔ 7 km/h
Θερμοκρασία: 26°C
Σημ. Δρόσου: 13°C
Υγρασία: 45%
Βαρόμετρο: 1016 hPa
Νέφωση: Διάσπαρτα Nέφη
Ορατότητα: 10 km
Λεπτομέρειες Νεφών: Διάσπαρτα Nέφη 1067 m
2019/08/25 19:20 LGIO 251920Z 30004KT 9999 FEW035 26/13 Q1016
 
LGZA - Zakinthos-Elev 3m
Απόσταση από meteothes.gr: ΝΝΔ 367km
Ενημερώθηκε: 25/08/2019 22:20
ΜΗ Ενημερωμένο METAR!
Αίθριος
Αίθριος
 Ανεμος από μεταβλητός
Ανεμος: μεταβλητός 4 km/h
Θερμοκρασία: 29°C
Δείκτη Δυσφορίας: 30°C
Σημ. Δρόσου: 19°C
Υγρασία: 55%
Βαρόμετρο: 1013 hPa
Συνθήκες: Αίθριος
Ορατότητα: πάνω από 10 km
2019/08/25 19:20 LGZA 251920Z VRB02KT CAVOK 29/19 Q1013
LGKR - Corfu Island-Elev 2m
Απόσταση από meteothes.gr: ΔΝΔ 282km
Ενημερώθηκε: 26/08/2019 02:20
Διάσπαρτα Nέφη
Διάσπαρτα Nέφη
 Ανεμος από Δ
Ανεμος: Δ 4 km/h
Θερμοκρασία: 24°C
Σημ. Δρόσου: 19°C
Υγρασία: 74%
Βαρόμετρο: 1013 hPa
Νέφωση: Διάσπαρτα Nέφη
Ορατότητα: 10 km
Λεπτομέρειες Νεφών: Διάσπαρτα Nέφη 2438 m
2019/08/25 23:20 LGKR 252320Z 27002KT 9999 FEW080 24/19 Q1013 NOSIG
 
LGSO - Syros Island-Elev 72m
Απόσταση από meteothes.gr: ΝΝΑ 397km
Ενημερώθηκε: 26/08/2019 02:20

 Ανεμος από ΒΒΔ
Ανεμος: ΒΒΔ 17 km/h
Θερμοκρασία: 28°C
Δείκτη Δυσφορίας: 28°C
Σημ. Δρόσου: 15°C
Υγρασία: 45%
Βαρόμετρο: 1011 hPa
2019/08/25 23:20 LGSO 252320Z AUTO 33009KT 300V360 //// // ////// 28/15 Q1011 RE//
LGMK - Mikonos Island-Elev 123m
Απόσταση από meteothes.gr: ΝΝΑ 412km
Ενημερώθηκε: 26/08/2019 00:20
ΜΗ Ενημερωμένο METAR!
Αίθριος
Αίθριος
 Ανεμος από Β
Ανεμος: Β 31 km/h
Θερμοκρασία: 26°C
Σημ. Δρόσου: 19°C
Υγρασία: 65%
Βαρόμετρο: 1011 hPa
Συνθήκες: Αίθριος
Ορατότητα: πάνω από 10 km
2019/08/25 21:20 LGMK 252120Z 36017KT CAVOK 26/19 Q1011
 
LGSR - Santorini Island-Elev 40m
Απόσταση από meteothes.gr: ΝΝΑ 520km
Ενημερώθηκε: 26/08/2019 02:20
Αίθριος
Αίθριος
 Ανεμος από ΔΒΔ
Ανεμος: ΔΒΔ 19 km/h
Θερμοκρασία: 26°C
Σημ. Δρόσου: 19°C
Υγρασία: 65%
Βαρόμετρο: 1010 hPa
Συνθήκες: Αίθριος
Ορατότητα: πάνω από 10 km
2019/08/25 23:20 LGSR 252320Z 30010KT CAVOK 26/19 Q1010
LGKL - Kalamata-Elev 8m
Απόσταση από meteothes.gr: Ν 405km
Ενημερώθηκε: 26/08/2019 02:20

 Ανεμος από μεταβλητός
Ανεμος: μεταβλητός 4 km/h
Θερμοκρασία: 21°C
Σημ. Δρόσου: 17°C
Υγρασία: 78%
Βαρόμετρο: 1012 hPa
2019/08/25 23:20 LGKL 252320Z AUTO VRB02KT //// // ////// 21/17 Q1012 RE//
 
LGIR - Iraklion/Crete-Elev 5m
Απόσταση από meteothes.gr: ΝΝΑ 622km
Ενημερώθηκε: 26/08/2019 02:20
Αίθριος
Αίθριος
 Ανεμος από ΝΝΑ
Ανεμος: ΝΝΑ 11 km/h
Θερμοκρασία: 23°C
Σημ. Δρόσου: 18°C
Υγρασία: 74%
Βαρόμετρο: 1011 hPa
Συνθήκες: Αίθριος
Ορατότητα: πάνω από 10 km
2019/08/25 23:20 LGIR 252320Z 16006KT CAVOK 23/18 Q1011 NOSIG
LGRP - Rhodes-Elev 5m
Απόσταση από meteothes.gr: ΝΑ 649km
Ενημερώθηκε: 26/08/2019 02:20
Αίθριος
Αίθριος
 Ανεμος από ΔΝΔ
Ανεμος: ΔΝΔ 13 km/h
Θερμοκρασία: 27°C
Δείκτη Δυσφορίας: 31°C
Σημ. Δρόσου: 24°C
Υγρασία: 84%
Βαρόμετρο: 1008 hPa
Συνθήκες: Αίθριος
Ορατότητα: πάνω από 10 km
2019/08/25 23:20 LGRP 252320Z 24007KT CAVOK 27/24 Q1008 NOSIG
 
LWOH - Ohrid/FYROM-Elev 761m
Απόσταση από meteothes.gr: ΔΒΔ 188km
Ενημερώθηκε: 25/08/2019 23:30
ΜΗ Ενημερωμένο METAR!
Διάσπαρτα Nέφη
Διάσπαρτα Nέφη
 Ανεμος από ΔΒΔ
Ανεμος: ΔΒΔ 4 km/h
Θερμοκρασία: 21°C
Σημ. Δρόσου: 13°C
Υγρασία: 60%
Βαρόμετρο: 1019 hPa
Νέφωση: Διάσπαρτα Nέφη
Ορατότητα: 10 km
Λεπτομέρειες Νεφών: Διάσπαρτα Nέφη 1524 m
2019/08/25 20:30 LWOH 252030Z 30002KT 9999 FEW050 21/13 Q1019
LBSF - Sofia/Bulgaria-Elev 595m
Απόσταση από meteothes.gr: Β 227km
Ενημερώθηκε: 26/08/2019 02:30
Αίθριος
Αίθριος
 Ανεμος από ΑΝΑ
Ανεμος: ΑΝΑ 15 km/h
Θερμοκρασία: 20°C
Σημ. Δρόσου: 13°C
Υγρασία: 64%
Βαρόμετρο: 1020 hPa
Συνθήκες: Αίθριος
Ορατότητα: πάνω από 10 km
2019/08/25 23:30 LBSF 252330Z 11008KT CAVOK 20/13 Q1020 NOSIG

(*) Μερικές αναφορές παρουσιάζουν λιγότερα στοιχεία γιατί οι αρχικές είναι ελλιπείς ή έχουν λάθος μορφοποίηση!

Please disable your adblock and script blockers to view this page